sensor_id;sensor_type;location;lat;lon;timestamp;P1;durP1;ratioP1;P2;durP2;ratioP2
20832;SDS011;56075;51.264;7.150;2024-03-08T00:00:46;29.67;;;11.50;;
20832;SDS011;56075;51.264;7.150;2024-03-08T00:03:17;23.30;;;10.53;;
20832;SDS011;56075;51.264;7.150;2024-03-08T00:05:48;27.63;;;11.33;;
20832;SDS011;56075;51.264;7.150;2024-03-08T00:08:19;26.53;;;10.90;;
20832;SDS011;56075;51.264;7.150;2024-03-08T00:10:50;25.47;;;11.03;;
20832;SDS011;56075;51.264;7.150;2024-03-08T00:13:21;23.53;;;10.13;;
20832;SDS011;56075;51.264;7.150;2024-03-08T00:15:52;28.87;;;11.30;;
20832;SDS011;56075;51.264;7.150;2024-03-08T00:18:23;29.27;;;12.00;;
20832;SDS011;56075;51.264;7.150;2024-03-08T00:20:55;25.70;;;11.10;;
20832;SDS011;56075;51.264;7.150;2024-03-08T00:23:26;29.03;;;11.73;;
20832;SDS011;56075;51.264;7.150;2024-03-08T00:25:58;29.83;;;11.67;;
20832;SDS011;56075;51.264;7.150;2024-03-08T00:28:32;28.90;;;12.33;;
20832;SDS011;56075;51.264;7.150;2024-03-08T00:31:04;31.17;;;12.10;;
20832;SDS011;56075;51.264;7.150;2024-03-08T00:33:37;26.87;;;11.47;;
20832;SDS011;56075;51.264;7.150;2024-03-08T00:36:10;32.23;;;12.33;;
20832;SDS011;56075;51.264;7.150;2024-03-08T00:38:41;28.03;;;12.00;;
20832;SDS011;56075;51.264;7.150;2024-03-08T00:41:12;31.17;;;12.47;;
20832;SDS011;56075;51.264;7.150;2024-03-08T00:43:43;31.23;;;12.10;;
20832;SDS011;56075;51.264;7.150;2024-03-08T00:46:15;26.90;;;11.87;;
20832;SDS011;56075;51.264;7.150;2024-03-08T00:48:46;26.23;;;11.13;;
20832;SDS011;56075;51.264;7.150;2024-03-08T00:51:17;26.77;;;11.63;;
20832;SDS011;56075;51.264;7.150;2024-03-08T00:53:49;27.37;;;11.63;;
20832;SDS011;56075;51.264;7.150;2024-03-08T00:56:20;29.77;;;11.87;;
20832;SDS011;56075;51.264;7.150;2024-03-08T00:58:51;34.13;;;12.27;;
20832;SDS011;56075;51.264;7.150;2024-03-08T01:01:22;26.77;;;11.63;;
20832;SDS011;56075;51.264;7.150;2024-03-08T01:03:55;29.67;;;12.40;;
20832;SDS011;56075;51.264;7.150;2024-03-08T01:06:27;26.03;;;10.83;;
20832;SDS011;56075;51.264;7.150;2024-03-08T01:08:58;30.20;;;12.23;;
20832;SDS011;56075;51.264;7.150;2024-03-08T01:11:29;29.33;;;12.50;;
20832;SDS011;56075;51.264;7.150;2024-03-08T01:14:01;28.03;;;12.23;;
20832;SDS011;56075;51.264;7.150;2024-03-08T01:16:32;25.70;;;12.00;;
20832;SDS011;56075;51.264;7.150;2024-03-08T01:19:03;30.63;;;12.13;;
20832;SDS011;56075;51.264;7.150;2024-03-08T01:21:35;26.53;;;11.40;;
20832;SDS011;56075;51.264;7.150;2024-03-08T01:24:07;26.80;;;12.23;;
20832;SDS011;56075;51.264;7.150;2024-03-08T01:26:39;27.43;;;10.47;;
20832;SDS011;56075;51.264;7.150;2024-03-08T01:29:10;31.20;;;12.40;;
20832;SDS011;56075;51.264;7.150;2024-03-08T01:31:42;31.53;;;12.73;;
20832;SDS011;56075;51.264;7.150;2024-03-08T01:34:13;26.70;;;11.70;;
20832;SDS011;56075;51.264;7.150;2024-03-08T01:36:44;29.27;;;11.73;;
20832;SDS011;56075;51.264;7.150;2024-03-08T01:39:15;28.17;;;11.83;;
20832;SDS011;56075;51.264;7.150;2024-03-08T01:41:47;28.77;;;11.70;;
20832;SDS011;56075;51.264;7.150;2024-03-08T01:44:19;27.00;;;11.33;;
20832;SDS011;56075;51.264;7.150;2024-03-08T01:46:51;33.63;;;12.47;;
20832;SDS011;56075;51.264;7.150;2024-03-08T01:49:23;32.70;;;12.90;;
20832;SDS011;56075;51.264;7.150;2024-03-08T01:51:55;27.37;;;12.17;;
20832;SDS011;56075;51.264;7.150;2024-03-08T01:54:27;28.93;;;11.33;;
20832;SDS011;56075;51.264;7.150;2024-03-08T01:56:58;28.27;;;12.43;;
20832;SDS011;56075;51.264;7.150;2024-03-08T01:59:30;29.20;;;12.57;;
20832;SDS011;56075;51.264;7.150;2024-03-08T02:02:01;32.20;;;12.37;;
20832;SDS011;56075;51.264;7.150;2024-03-08T02:04:33;32.93;;;12.53;;
20832;SDS011;56075;51.264;7.150;2024-03-08T02:07:04;32.27;;;13.13;;
20832;SDS011;56075;51.264;7.150;2024-03-08T02:09:36;30.20;;;12.27;;
20832;SDS011;56075;51.264;7.150;2024-03-08T02:12:07;27.27;;;12.40;;
20832;SDS011;56075;51.264;7.150;2024-03-08T02:14:41;29.90;;;12.60;;
20832;SDS011;56075;51.264;7.150;2024-03-08T02:17:14;33.83;;;11.90;;
20832;SDS011;56075;51.264;7.150;2024-03-08T02:19:46;29.27;;;11.80;;
20832;SDS011;56075;51.264;7.150;2024-03-08T02:22:18;35.13;;;12.87;;
20832;SDS011;56075;51.264;7.150;2024-03-08T02:24:49;28.47;;;12.27;;
20832;SDS011;56075;51.264;7.150;2024-03-08T02:27:24;27.47;;;11.83;;
20832;SDS011;56075;51.264;7.150;2024-03-08T02:30:00;31.97;;;12.73;;
20832;SDS011;56075;51.264;7.150;2024-03-08T02:32:31;35.57;;;13.17;;
20832;SDS011;56075;51.264;7.150;2024-03-08T02:35:03;28.10;;;12.57;;
20832;SDS011;56075;51.264;7.150;2024-03-08T02:37:36;31.30;;;12.97;;
20832;SDS011;56075;51.264;7.150;2024-03-08T02:40:09;32.47;;;13.30;;
20832;SDS011;56075;51.264;7.150;2024-03-08T02:42:43;35.40;;;12.50;;
20832;SDS011;56075;51.264;7.150;2024-03-08T02:45:14;31.57;;;12.27;;
20832;SDS011;56075;51.264;7.150;2024-03-08T02:47:45;31.87;;;13.00;;
20832;SDS011;56075;51.264;7.150;2024-03-08T02:50:16;35.87;;;12.60;;
20832;SDS011;56075;51.264;7.150;2024-03-08T02:52:48;32.20;;;13.40;;
20832;SDS011;56075;51.264;7.150;2024-03-08T02:55:20;33.67;;;13.30;;
20832;SDS011;56075;51.264;7.150;2024-03-08T02:57:51;30.90;;;12.73;;
20832;SDS011;56075;51.264;7.150;2024-03-08T03:00:24;33.30;;;13.07;;
20832;SDS011;56075;51.264;7.150;2024-03-08T03:02:57;32.83;;;12.47;;
20832;SDS011;56075;51.264;7.150;2024-03-08T03:05:29;33.40;;;13.37;;
20832;SDS011;56075;51.264;7.150;2024-03-08T03:08:00;30.13;;;12.77;;
20832;SDS011;56075;51.264;7.150;2024-03-08T03:10:32;33.07;;;13.03;;
20832;SDS011;56075;51.264;7.150;2024-03-08T03:13:03;31.60;;;12.17;;
20832;SDS011;56075;51.264;7.150;2024-03-08T03:15:38;30.60;;;12.53;;
20832;SDS011;56075;51.264;7.150;2024-03-08T03:18:12;32.30;;;13.17;;
20832;SDS011;56075;51.264;7.150;2024-03-08T03:20:43;26.07;;;11.67;;
20832;SDS011;56075;51.264;7.150;2024-03-08T03:23:15;31.20;;;12.43;;
20832;SDS011;56075;51.264;7.150;2024-03-08T03:25:50;31.43;;;12.97;;
20832;SDS011;56075;51.264;7.150;2024-03-08T03:28:23;33.90;;;12.73;;
20832;SDS011;56075;51.264;7.150;2024-03-08T03:30:54;32.23;;;13.27;;
20832;SDS011;56075;51.264;7.150;2024-03-08T03:33:29;30.73;;;11.83;;
20832;SDS011;56075;51.264;7.150;2024-03-08T03:36:00;28.20;;;11.93;;
20832;SDS011;56075;51.264;7.150;2024-03-08T03:38:31;29.13;;;11.17;;
20832;SDS011;56075;51.264;7.150;2024-03-08T03:41:04;33.80;;;13.23;;
20832;SDS011;56075;51.264;7.150;2024-03-08T03:43:40;28.53;;;11.40;;
20832;SDS011;56075;51.264;7.150;2024-03-08T03:46:12;31.83;;;12.57;;
20832;SDS011;56075;51.264;7.150;2024-03-08T03:48:43;31.30;;;11.93;;
20832;SDS011;56075;51.264;7.150;2024-03-08T03:51:14;33.13;;;12.20;;
20832;SDS011;56075;51.264;7.150;2024-03-08T03:53:46;33.43;;;12.73;;
20832;SDS011;56075;51.264;7.150;2024-03-08T03:56:17;32.83;;;13.03;;
20832;SDS011;56075;51.264;7.150;2024-03-08T03:58:48;30.80;;;12.23;;
20832;SDS011;56075;51.264;7.150;2024-03-08T04:01:20;30.20;;;12.50;;
20832;SDS011;56075;51.264;7.150;2024-03-08T04:03:52;37.03;;;12.87;;
20832;SDS011;56075;51.264;7.150;2024-03-08T04:06:23;30.17;;;12.20;;
20832;SDS011;56075;51.264;7.150;2024-03-08T04:08:54;27.97;;;12.63;;
20832;SDS011;56075;51.264;7.150;2024-03-08T04:11:26;31.00;;;12.17;;
20832;SDS011;56075;51.264;7.150;2024-03-08T04:13:57;31.13;;;11.30;;
20832;SDS011;56075;51.264;7.150;2024-03-08T04:16:28;32.50;;;11.77;;
20832;SDS011;56075;51.264;7.150;2024-03-08T04:18:59;31.10;;;12.10;;
20832;SDS011;56075;51.264;7.150;2024-03-08T04:21:34;30.77;;;12.37;;
20832;SDS011;56075;51.264;7.150;2024-03-08T04:24:05;30.97;;;11.87;;
20832;SDS011;56075;51.264;7.150;2024-03-08T04:26:37;31.87;;;13.20;;
20832;SDS011;56075;51.264;7.150;2024-03-08T04:29:08;33.50;;;12.50;;
20832;SDS011;56075;51.264;7.150;2024-03-08T04:31:39;34.23;;;12.23;;
20832;SDS011;56075;51.264;7.150;2024-03-08T04:34:11;32.13;;;12.23;;
20832;SDS011;56075;51.264;7.150;2024-03-08T04:36:42;32.77;;;11.47;;
20832;SDS011;56075;51.264;7.150;2024-03-08T04:39:13;31.87;;;12.67;;
20832;SDS011;56075;51.264;7.150;2024-03-08T04:41:46;35.37;;;12.63;;
20832;SDS011;56075;51.264;7.150;2024-03-08T04:44:17;33.03;;;12.57;;
20832;SDS011;56075;51.264;7.150;2024-03-08T04:46:48;28.83;;;10.57;;
20832;SDS011;56075;51.264;7.150;2024-03-08T04:49:19;34.20;;;12.90;;
20832;SDS011;56075;51.264;7.150;2024-03-08T04:51:53;32.13;;;12.70;;
20832;SDS011;56075;51.264;7.150;2024-03-08T04:54:24;28.77;;;11.40;;
20832;SDS011;56075;51.264;7.150;2024-03-08T04:56:55;33.07;;;12.07;;
20832;SDS011;56075;51.264;7.150;2024-03-08T04:59:27;31.93;;;11.73;;
20832;SDS011;56075;51.264;7.150;2024-03-08T05:01:58;29.70;;;11.87;;
20832;SDS011;56075;51.264;7.150;2024-03-08T05:04:29;31.50;;;11.53;;
20832;SDS011;56075;51.264;7.150;2024-03-08T05:07:01;30.57;;;11.80;;
20832;SDS011;56075;51.264;7.150;2024-03-08T05:09:33;34.00;;;13.03;;
20832;SDS011;56075;51.264;7.150;2024-03-08T05:12:04;32.17;;;12.30;;
20832;SDS011;56075;51.264;7.150;2024-03-08T05:14:35;32.97;;;12.33;;
20832;SDS011;56075;51.264;7.150;2024-03-08T05:17:07;31.37;;;12.23;;
20832;SDS011;56075;51.264;7.150;2024-03-08T05:19:38;29.60;;;11.53;;
20832;SDS011;56075;51.264;7.150;2024-03-08T05:22:09;34.77;;;12.37;;
20832;SDS011;56075;51.264;7.150;2024-03-08T05:24:40;32.33;;;12.37;;
20832;SDS011;56075;51.264;7.150;2024-03-08T05:27:11;33.90;;;12.93;;
20832;SDS011;56075;51.264;7.150;2024-03-08T05:29:43;29.00;;;11.90;;
20832;SDS011;56075;51.264;7.150;2024-03-08T05:32:14;32.20;;;12.23;;
20832;SDS011;56075;51.264;7.150;2024-03-08T05:34:46;33.13;;;12.10;;
20832;SDS011;56075;51.264;7.150;2024-03-08T05:37:17;31.63;;;12.10;;
20832;SDS011;56075;51.264;7.150;2024-03-08T05:39:51;30.90;;;12.60;;
20832;SDS011;56075;51.264;7.150;2024-03-08T05:42:22;33.67;;;11.80;;
20832;SDS011;56075;51.264;7.150;2024-03-08T05:44:53;34.97;;;12.03;;
20832;SDS011;56075;51.264;7.150;2024-03-08T05:47:27;27.37;;;11.90;;
20832;SDS011;56075;51.264;7.150;2024-03-08T05:49:59;29.13;;;12.20;;
20832;SDS011;56075;51.264;7.150;2024-03-08T05:52:31;30.63;;;11.03;;
20832;SDS011;56075;51.264;7.150;2024-03-08T05:55:03;31.53;;;11.77;;
20832;SDS011;56075;51.264;7.150;2024-03-08T05:57:37;29.70;;;11.00;;
20832;SDS011;56075;51.264;7.150;2024-03-08T06:00:10;32.43;;;12.43;;
20832;SDS011;56075;51.264;7.150;2024-03-08T06:02:47;29.50;;;11.70;;
20832;SDS011;56075;51.264;7.150;2024-03-08T06:05:19;36.17;;;12.37;;
20832;SDS011;56075;51.264;7.150;2024-03-08T06:07:50;34.30;;;12.33;;
20832;SDS011;56075;51.264;7.150;2024-03-08T06:10:23;32.50;;;11.60;;
20832;SDS011;56075;51.264;7.150;2024-03-08T06:12:55;32.87;;;12.23;;
20832;SDS011;56075;51.264;7.150;2024-03-08T06:15:26;34.10;;;13.10;;
20832;SDS011;56075;51.264;7.150;2024-03-08T06:17:57;34.60;;;13.30;;
20832;SDS011;56075;51.264;7.150;2024-03-08T06:20:29;33.93;;;12.93;;
20832;SDS011;56075;51.264;7.150;2024-03-08T06:23:00;30.03;;;12.50;;
20832;SDS011;56075;51.264;7.150;2024-03-08T06:25:31;34.23;;;11.83;;
20832;SDS011;56075;51.264;7.150;2024-03-08T06:28:03;29.27;;;11.80;;
20832;SDS011;56075;51.264;7.150;2024-03-08T06:30:34;29.27;;;12.13;;
20832;SDS011;56075;51.264;7.150;2024-03-08T06:33:05;30.70;;;11.60;;
20832;SDS011;56075;51.264;7.150;2024-03-08T06:35:37;35.80;;;12.37;;
20832;SDS011;56075;51.264;7.150;2024-03-08T06:38:09;35.23;;;13.80;;
20832;SDS011;56075;51.264;7.150;2024-03-08T06:40:41;31.20;;;12.50;;
20832;SDS011;56075;51.264;7.150;2024-03-08T06:43:13;31.57;;;12.20;;
20832;SDS011;56075;51.264;7.150;2024-03-08T06:45:46;31.93;;;12.40;;
20832;SDS011;56075;51.264;7.150;2024-03-08T06:48:21;33.93;;;12.33;;
20832;SDS011;56075;51.264;7.150;2024-03-08T06:50:52;33.30;;;12.80;;
20832;SDS011;56075;51.264;7.150;2024-03-08T06:53:23;32.27;;;12.40;;
20832;SDS011;56075;51.264;7.150;2024-03-08T06:55:55;39.63;;;14.50;;
20832;SDS011;56075;51.264;7.150;2024-03-08T06:58:28;37.90;;;13.03;;
20832;SDS011;56075;51.264;7.150;2024-03-08T07:00:59;33.80;;;12.50;;
20832;SDS011;56075;51.264;7.150;2024-03-08T07:03:34;34.37;;;12.70;;
20832;SDS011;56075;51.264;7.150;2024-03-08T07:06:05;33.90;;;12.83;;
20832;SDS011;56075;51.264;7.150;2024-03-08T07:08:38;34.60;;;12.87;;
20832;SDS011;56075;51.264;7.150;2024-03-08T07:11:09;34.33;;;12.13;;
20832;SDS011;56075;51.264;7.150;2024-03-08T07:13:40;32.63;;;12.60;;
20832;SDS011;56075;51.264;7.150;2024-03-08T07:16:12;31.53;;;12.63;;
20832;SDS011;56075;51.264;7.150;2024-03-08T07:18:43;35.97;;;14.03;;
20832;SDS011;56075;51.264;7.150;2024-03-08T07:21:14;37.40;;;15.20;;
20832;SDS011;56075;51.264;7.150;2024-03-08T07:23:46;32.87;;;12.17;;
20832;SDS011;56075;51.264;7.150;2024-03-08T07:26:24;33.73;;;13.53;;
20832;SDS011;56075;51.264;7.150;2024-03-08T07:28:56;32.87;;;12.90;;
20832;SDS011;56075;51.264;7.150;2024-03-08T07:31:29;35.27;;;12.63;;
20832;SDS011;56075;51.264;7.150;2024-03-08T07:34:12;35.73;;;12.93;;
20832;SDS011;56075;51.264;7.150;2024-03-08T07:36:44;32.03;;;11.93;;
20832;SDS011;56075;51.264;7.150;2024-03-08T07:39:15;35.57;;;13.23;;
20832;SDS011;56075;51.264;7.150;2024-03-08T07:41:46;31.83;;;12.53;;
20832;SDS011;56075;51.264;7.150;2024-03-08T07:44:18;31.77;;;11.57;;
20832;SDS011;56075;51.264;7.150;2024-03-08T07:46:50;36.50;;;13.17;;
20832;SDS011;56075;51.264;7.150;2024-03-08T07:49:21;26.57;;;10.93;;
20832;SDS011;56075;51.264;7.150;2024-03-08T07:51:53;30.73;;;12.00;;
20832;SDS011;56075;51.264;7.150;2024-03-08T07:54:24;32.13;;;12.20;;
20832;SDS011;56075;51.264;7.150;2024-03-08T07:56:56;32.80;;;13.20;;
20832;SDS011;56075;51.264;7.150;2024-03-08T07:59:28;28.23;;;11.40;;
20832;SDS011;56075;51.264;7.150;2024-03-08T08:02:00;30.23;;;12.07;;
20832;SDS011;56075;51.264;7.150;2024-03-08T08:04:31;33.00;;;11.93;;
20832;SDS011;56075;51.264;7.150;2024-03-08T08:07:03;34.63;;;12.50;;
20832;SDS011;56075;51.264;7.150;2024-03-08T08:09:34;28.93;;;11.70;;
20832;SDS011;56075;51.264;7.150;2024-03-08T08:12:06;28.43;;;11.13;;
20832;SDS011;56075;51.264;7.150;2024-03-08T08:14:38;31.60;;;12.00;;
20832;SDS011;56075;51.264;7.150;2024-03-08T08:17:09;36.50;;;12.73;;
20832;SDS011;56075;51.264;7.150;2024-03-08T08:19:42;30.63;;;12.47;;
20832;SDS011;56075;51.264;7.150;2024-03-08T08:22:13;29.37;;;12.20;;
20832;SDS011;56075;51.264;7.150;2024-03-08T08:24:45;29.50;;;12.23;;
20832;SDS011;56075;51.264;7.150;2024-03-08T08:27:16;29.30;;;11.63;;
20832;SDS011;56075;51.264;7.150;2024-03-08T08:29:48;25.70;;;11.33;;
20832;SDS011;56075;51.264;7.150;2024-03-08T08:32:20;27.83;;;11.67;;
20832;SDS011;56075;51.264;7.150;2024-03-08T08:34:51;25.63;;;10.27;;
20832;SDS011;56075;51.264;7.150;2024-03-08T08:37:23;29.80;;;11.37;;
20832;SDS011;56075;51.264;7.150;2024-03-08T08:39:54;26.43;;;10.97;;
20832;SDS011;56075;51.264;7.150;2024-03-08T08:42:25;25.03;;;10.43;;
20832;SDS011;56075;51.264;7.150;2024-03-08T08:44:59;28.30;;;11.33;;
20832;SDS011;56075;51.264;7.150;2024-03-08T08:47:30;30.80;;;11.47;;
20832;SDS011;56075;51.264;7.150;2024-03-08T08:50:02;27.97;;;11.07;;
20832;SDS011;56075;51.264;7.150;2024-03-08T08:52:35;27.80;;;10.97;;
20832;SDS011;56075;51.264;7.150;2024-03-08T08:55:06;25.17;;;10.20;;
20832;SDS011;56075;51.264;7.150;2024-03-08T08:57:37;21.67;;;9.10;;
20832;SDS011;56075;51.264;7.150;2024-03-08T09:00:09;26.13;;;10.20;;
20832;SDS011;56075;51.264;7.150;2024-03-08T09:02:45;27.00;;;11.03;;
20832;SDS011;56075;51.264;7.150;2024-03-08T09:05:16;25.27;;;10.63;;
20832;SDS011;56075;51.264;7.150;2024-03-08T09:07:47;25.23;;;10.10;;
20832;SDS011;56075;51.264;7.150;2024-03-08T09:10:18;26.67;;;10.23;;
20832;SDS011;56075;51.264;7.150;2024-03-08T09:12:50;24.03;;;10.30;;
20832;SDS011;56075;51.264;7.150;2024-03-08T09:15:21;25.60;;;10.40;;
20832;SDS011;56075;51.264;7.150;2024-03-08T09:17:52;24.47;;;10.13;;
20832;SDS011;56075;51.264;7.150;2024-03-08T09:20:23;26.63;;;10.43;;
20832;SDS011;56075;51.264;7.150;2024-03-08T09:22:55;21.23;;;9.20;;
20832;SDS011;56075;51.264;7.150;2024-03-08T09:25:26;23.97;;;10.20;;
20832;SDS011;56075;51.264;7.150;2024-03-08T09:27:58;23.60;;;10.07;;
20832;SDS011;56075;51.264;7.150;2024-03-08T09:30:29;22.00;;;9.83;;
20832;SDS011;56075;51.264;7.150;2024-03-08T09:33:00;24.77;;;9.77;;
20832;SDS011;56075;51.264;7.150;2024-03-08T09:35:32;23.97;;;9.80;;
20832;SDS011;56075;51.264;7.150;2024-03-08T09:38:04;21.57;;;9.60;;
20832;SDS011;56075;51.264;7.150;2024-03-08T09:40:35;23.40;;;10.60;;
20832;SDS011;56075;51.264;7.150;2024-03-08T09:43:06;25.13;;;10.50;;
20832;SDS011;56075;51.264;7.150;2024-03-08T09:45:37;21.53;;;9.33;;
20832;SDS011;56075;51.264;7.150;2024-03-08T09:48:11;21.60;;;9.00;;
20832;SDS011;56075;51.264;7.150;2024-03-08T09:50:42;19.73;;;9.00;;
20832;SDS011;56075;51.264;7.150;2024-03-08T09:53:14;21.23;;;9.43;;
20832;SDS011;56075;51.264;7.150;2024-03-08T09:55:45;23.93;;;9.80;;
20832;SDS011;56075;51.264;7.150;2024-03-08T09:58:16;24.57;;;9.80;;
20832;SDS011;56075;51.264;7.150;2024-03-08T10:01:03;20.97;;;8.80;;
20832;SDS011;56075;51.264;7.150;2024-03-08T10:03:37;20.17;;;8.67;;
20832;SDS011;56075;51.264;7.150;2024-03-08T10:06:09;19.67;;;8.57;;
20832;SDS011;56075;51.264;7.150;2024-03-08T10:08:40;20.97;;;9.30;;
20832;SDS011;56075;51.264;7.150;2024-03-08T10:11:12;20.20;;;9.37;;
20832;SDS011;56075;51.264;7.150;2024-03-08T10:13:44;19.87;;;9.00;;
20832;SDS011;56075;51.264;7.150;2024-03-08T10:16:17;23.53;;;8.23;;
20832;SDS011;56075;51.264;7.150;2024-03-08T10:18:49;17.60;;;8.47;;
20832;SDS011;56075;51.264;7.150;2024-03-08T10:21:20;18.40;;;8.00;;
20832;SDS011;56075;51.264;7.150;2024-03-08T10:23:51;16.07;;;7.57;;
20832;SDS011;56075;51.264;7.150;2024-03-08T10:26:22;19.43;;;8.40;;
20832;SDS011;56075;51.264;7.150;2024-03-08T10:28:54;17.10;;;8.20;;
20832;SDS011;56075;51.264;7.150;2024-03-08T10:31:25;18.87;;;7.77;;
20832;SDS011;56075;51.264;7.150;2024-03-08T10:33:56;18.10;;;7.73;;
20832;SDS011;56075;51.264;7.150;2024-03-08T10:36:28;16.07;;;7.50;;
20832;SDS011;56075;51.264;7.150;2024-03-08T10:38:59;18.33;;;7.70;;
20832;SDS011;56075;51.264;7.150;2024-03-08T10:41:32;18.90;;;7.80;;
20832;SDS011;56075;51.264;7.150;2024-03-08T10:44:15;16.13;;;7.47;;
20832;SDS011;56075;51.264;7.150;2024-03-08T10:47:15;15.20;;;6.20;;
20832;SDS011;56075;51.264;7.150;2024-03-08T10:49:50;15.65;;;7.32;;
20832;SDS011;56075;51.264;7.150;2024-03-08T10:52:25;14.23;;;6.67;;
20832;SDS011;56075;51.264;7.150;2024-03-08T10:54:56;16.73;;;7.10;;
20832;SDS011;56075;51.264;7.150;2024-03-08T10:57:27;14.43;;;6.95;;
20832;SDS011;56075;51.264;7.150;2024-03-08T10:59:59;16.07;;;6.97;;
20832;SDS011;56075;51.264;7.150;2024-03-08T11:02:30;15.10;;;6.30;;
20832;SDS011;56075;51.264;7.150;2024-03-08T11:05:01;17.80;;;7.10;;
20832;SDS011;56075;51.264;7.150;2024-03-08T11:07:34;13.23;;;6.00;;
20832;SDS011;56075;51.264;7.150;2024-03-08T11:10:06;15.03;;;6.93;;
20832;SDS011;56075;51.264;7.150;2024-03-08T11:12:50;14.20;;;7.15;;
20832;SDS011;56075;51.264;7.150;2024-03-08T11:15:22;14.00;;;7.00;;
20832;SDS011;56075;51.264;7.150;2024-03-08T11:17:58;17.50;;;7.35;;
20832;SDS011;56075;51.264;7.150;2024-03-08T11:20:30;13.02;;;6.75;;
20832;SDS011;56075;51.264;7.150;2024-03-08T11:23:06;13.60;;;6.53;;
20832;SDS011;56075;51.264;7.150;2024-03-08T11:25:37;14.38;;;7.05;;
20832;SDS011;56075;51.264;7.150;2024-03-08T11:28:14;15.90;;;6.55;;
20832;SDS011;56075;51.264;7.150;2024-03-08T11:33:32;15.57;;;7.25;;
20832;SDS011;56075;51.264;7.150;2024-03-08T11:38:46;15.75;;;7.65;;
20832;SDS011;56075;51.264;7.150;2024-03-08T11:41:23;15.55;;;6.38;;
20832;SDS011;56075;51.264;7.150;2024-03-08T11:44:02;12.52;;;6.30;;
20832;SDS011;56075;51.264;7.150;2024-03-08T11:46:37;14.38;;;6.10;;
20832;SDS011;56075;51.264;7.150;2024-03-08T11:49:13;13.15;;;6.10;;
20832;SDS011;56075;51.264;7.150;2024-03-08T11:51:44;15.45;;;6.47;;
20832;SDS011;56075;51.264;7.150;2024-03-08T11:54:16;11.80;;;5.82;;
20832;SDS011;56075;51.264;7.150;2024-03-08T11:56:50;12.23;;;5.88;;
20832;SDS011;56075;51.264;7.150;2024-03-08T11:59:22;13.27;;;6.03;;
20832;SDS011;56075;51.264;7.150;2024-03-08T12:01:58;11.77;;;5.78;;
20832;SDS011;56075;51.264;7.150;2024-03-08T12:04:30;11.65;;;5.53;;
20832;SDS011;56075;51.264;7.150;2024-03-08T12:07:02;16.38;;;6.30;;
20832;SDS011;56075;51.264;7.150;2024-03-08T12:09:39;12.20;;;5.63;;
20832;SDS011;56075;51.264;7.150;2024-03-08T12:12:11;10.95;;;5.43;;
20832;SDS011;56075;51.264;7.150;2024-03-08T12:14:43;12.48;;;5.60;;
20832;SDS011;56075;51.264;7.150;2024-03-08T12:17:15;12.38;;;5.70;;
20832;SDS011;56075;51.264;7.150;2024-03-08T12:19:46;12.70;;;5.38;;
20832;SDS011;56075;51.264;7.150;2024-03-08T12:22:18;12.65;;;5.50;;
20832;SDS011;56075;51.264;7.150;2024-03-08T12:25:05;11.10;;;5.40;;
20832;SDS011;56075;51.264;7.150;2024-03-08T12:27:41;13.20;;;5.53;;
20832;SDS011;56075;51.264;7.150;2024-03-08T12:30:20;13.90;;;5.63;;
20832;SDS011;56075;51.264;7.150;2024-03-08T12:32:57;12.20;;;5.57;;
20832;SDS011;56075;51.264;7.150;2024-03-08T12:35:29;12.45;;;6.13;;
20832;SDS011;56075;51.264;7.150;2024-03-08T12:38:03;13.23;;;6.25;;
20832;SDS011;56075;51.264;7.150;2024-03-08T12:40:36;10.52;;;5.65;;
20832;SDS011;56075;51.264;7.150;2024-03-08T12:43:11;13.65;;;6.05;;
20832;SDS011;56075;51.264;7.150;2024-03-08T12:45:42;11.82;;;5.53;;
20832;SDS011;56075;51.264;7.150;2024-03-08T12:48:13;12.77;;;5.90;;
20832;SDS011;56075;51.264;7.150;2024-03-08T12:50:46;11.55;;;5.75;;
20832;SDS011;56075;51.264;7.150;2024-03-08T12:53:18;12.23;;;5.53;;
20832;SDS011;56075;51.264;7.150;2024-03-08T12:55:49;9.77;;;5.22;;
20832;SDS011;56075;51.264;7.150;2024-03-08T12:58:20;11.88;;;5.55;;
20832;SDS011;56075;51.264;7.150;2024-03-08T13:00:52;12.20;;;5.97;;
20832;SDS011;56075;51.264;7.150;2024-03-08T13:03:23;13.45;;;5.88;;
20832;SDS011;56075;51.264;7.150;2024-03-08T13:05:54;12.52;;;6.13;;
20832;SDS011;56075;51.264;7.150;2024-03-08T13:08:27;10.95;;;5.88;;
20832;SDS011;56075;51.264;7.150;2024-03-08T13:11:00;13.45;;;6.13;;
20832;SDS011;56075;51.264;7.150;2024-03-08T13:13:32;11.18;;;5.95;;
20832;SDS011;56075;51.264;7.150;2024-03-08T13:16:06;12.80;;;6.07;;
20832;SDS011;56075;51.264;7.150;2024-03-08T13:18:41;12.50;;;5.88;;
20832;SDS011;56075;51.264;7.150;2024-03-08T13:21:12;13.38;;;6.10;;
20832;SDS011;56075;51.264;7.150;2024-03-08T13:23:44;11.55;;;5.60;;
20832;SDS011;56075;51.264;7.150;2024-03-08T13:26:16;11.90;;;5.85;;
20832;SDS011;56075;51.264;7.150;2024-03-08T13:28:48;12.68;;;6.00;;
20832;SDS011;56075;51.264;7.150;2024-03-08T13:31:23;11.10;;;5.43;;
20832;SDS011;56075;51.264;7.150;2024-03-08T13:33:55;13.32;;;6.13;;
20832;SDS011;56075;51.264;7.150;2024-03-08T13:36:29;13.82;;;6.15;;
20832;SDS011;56075;51.264;7.150;2024-03-08T13:39:09;15.07;;;6.05;;
20832;SDS011;56075;51.264;7.150;2024-03-08T13:41:46;12.05;;;6.25;;
20832;SDS011;56075;51.264;7.150;2024-03-08T13:44:17;10.90;;;5.68;;
20832;SDS011;56075;51.264;7.150;2024-03-08T13:46:48;12.80;;;5.47;;
20832;SDS011;56075;51.264;7.150;2024-03-08T13:49:21;32.38;;;6.20;;
20832;SDS011;56075;51.264;7.150;2024-03-08T13:51:52;34.95;;;6.78;;
20832;SDS011;56075;51.264;7.150;2024-03-08T13:54:25;58.83;;;8.15;;
20832;SDS011;56075;51.264;7.150;2024-03-08T13:56:57;29.70;;;7.38;;
20832;SDS011;56075;51.264;7.150;2024-03-08T13:59:29;16.33;;;6.15;;
20832;SDS011;56075;51.264;7.150;2024-03-08T14:02:10;12.85;;;6.13;;
20832;SDS011;56075;51.264;7.150;2024-03-08T14:04:43;28.80;;;6.68;;
20832;SDS011;56075;51.264;7.150;2024-03-08T14:07:15;21.10;;;7.10;;
20832;SDS011;56075;51.264;7.150;2024-03-08T14:09:46;18.00;;;5.93;;
20832;SDS011;56075;51.264;7.150;2024-03-08T14:12:18;23.25;;;6.32;;
20832;SDS011;56075;51.264;7.150;2024-03-08T14:14:49;14.80;;;6.18;;
20832;SDS011;56075;51.264;7.150;2024-03-08T14:17:21;20.85;;;6.90;;
20832;SDS011;56075;51.264;7.150;2024-03-08T14:19:52;14.02;;;6.70;;
20832;SDS011;56075;51.264;7.150;2024-03-08T14:22:23;11.73;;;6.43;;
20832;SDS011;56075;51.264;7.150;2024-03-08T14:24:54;15.32;;;7.15;;
20832;SDS011;56075;51.264;7.150;2024-03-08T14:27:26;14.93;;;7.57;;
20832;SDS011;56075;51.264;7.150;2024-03-08T14:29:57;13.25;;;7.47;;
20832;SDS011;56075;51.264;7.150;2024-03-08T14:32:28;14.00;;;7.82;;
20832;SDS011;56075;51.264;7.150;2024-03-08T14:34:59;14.27;;;7.60;;
20832;SDS011;56075;51.264;7.150;2024-03-08T14:37:31;14.68;;;7.30;;
20832;SDS011;56075;51.264;7.150;2024-03-08T14:40:02;16.35;;;7.90;;
20832;SDS011;56075;51.264;7.150;2024-03-08T14:42:35;16.90;;;7.80;;
20832;SDS011;56075;51.264;7.150;2024-03-08T14:45:07;20.52;;;8.30;;
20832;SDS011;56075;51.264;7.150;2024-03-08T14:47:39;14.07;;;7.80;;
20832;SDS011;56075;51.264;7.150;2024-03-08T14:50:10;15.93;;;8.30;;
20832;SDS011;56075;51.264;7.150;2024-03-08T14:52:43;13.43;;;7.47;;
20832;SDS011;56075;51.264;7.150;2024-03-08T14:55:15;14.65;;;7.68;;
20832;SDS011;56075;51.264;7.150;2024-03-08T14:57:49;14.80;;;8.18;;
20832;SDS011;56075;51.264;7.150;2024-03-08T15:00:24;15.35;;;8.20;;